createdAt,value
2022-08-18T00:00:56.240Z,21.28
2022-08-18T00:06:18.329Z,21.12
2022-08-18T00:11:43.594Z,20.96
2022-08-18T00:17:05.447Z,20.82
2022-08-18T00:22:27.154Z,20.67
2022-08-18T00:27:49.366Z,20.59
2022-08-18T00:33:11.102Z,20.55
2022-08-18T00:38:32.799Z,20.49
2022-08-18T00:43:55.532Z,20.37
2022-08-18T00:49:18.323Z,20.46
2022-08-18T00:54:41.729Z,20.45
2022-08-18T01:00:11.993Z,20.58
2022-08-18T01:05:45.645Z,20.49
2022-08-18T01:11:07.801Z,20.49
2022-08-18T01:16:53.140Z,20.56
2022-08-18T01:22:25.477Z,20.46
2022-08-18T01:27:47.239Z,20.49
2022-08-18T01:33:10.511Z,20.47
2022-08-18T01:38:32.214Z,20.28
2022-08-18T01:43:53.938Z,20.27
2022-08-18T01:49:15.683Z,20.25
2022-08-18T01:54:37.541Z,20.22
2022-08-18T02:00:01.062Z,20.21
2022-08-18T02:05:31.524Z,20.11
2022-08-18T02:10:53.340Z,20.08
2022-08-18T02:16:16.785Z,20.17
2022-08-18T02:21:38.690Z,20.06
2022-08-18T02:27:00.764Z,20.16
2022-08-18T02:32:22.498Z,20.33
2022-08-18T02:37:48.563Z,20.36
2022-08-18T02:43:10.323Z,20.37
2022-08-18T02:48:34.658Z,20.42
2022-08-18T02:53:59.586Z,20.32
2022-08-18T02:59:27.537Z,20.40
2022-08-18T03:04:49.275Z,20.40
2022-08-18T03:10:32.743Z,20.35
2022-08-18T03:15:56.859Z,20.36
2022-08-18T03:21:21.649Z,20.18
2022-08-18T03:26:45.111Z,20.17
2022-08-18T03:32:08.612Z,20.23
2022-08-18T03:37:30.294Z,20.28
2022-08-18T03:42:52.131Z,20.13
2022-08-18T03:48:13.966Z,20.04
2022-08-18T03:53:37.174Z,19.99
2022-08-18T03:59:04.826Z,20.17
2022-08-18T04:04:28.606Z,20.13
2022-08-18T04:09:50.390Z,19.93
2022-08-18T04:15:12.195Z,19.83
2022-08-18T04:20:35.449Z,19.80
2022-08-18T04:26:02.046Z,19.73
2022-08-18T04:31:24.738Z,19.84
2022-08-18T04:36:46.833Z,19.82
2022-08-18T04:42:08.757Z,19.97
2022-08-18T04:47:30.486Z,19.91
2022-08-18T04:53:11.027Z,19.96
2022-08-18T04:58:32.769Z,20.04
2022-08-18T05:03:56.310Z,20.03
2022-08-18T05:09:22.956Z,20.19
2022-08-18T05:14:45.678Z,20.33
2022-08-18T05:20:08.811Z,20.42
2022-08-18T05:25:30.563Z,20.35
2022-08-18T05:30:52.463Z,20.35
2022-08-18T05:36:26.169Z,20.41
2022-08-18T05:41:54.350Z,20.29
2022-08-18T05:47:29.522Z,20.42
2022-08-18T05:52:58.216Z,20.50
2022-08-18T05:58:33.324Z,20.58
2022-08-18T06:04:05.871Z,20.71
2022-08-18T06:09:43.574Z,20.72
2022-08-18T06:15:22.544Z,20.72
2022-08-18T06:21:22.257Z,20.67
2022-08-18T06:27:19.354Z,20.79
2022-08-18T06:33:18.307Z,20.87
2022-08-18T06:39:03.124Z,20.99
2022-08-18T06:44:49.043Z,21.02
2022-08-18T06:50:29.565Z,21.08
2022-08-18T06:55:51.778Z,21.07
2022-08-18T07:01:17.730Z,21.08
2022-08-18T07:06:39.470Z,21.12
2022-08-18T07:12:09.857Z,21.19
2022-08-18T07:17:42.716Z,21.23
2022-08-18T07:23:08.341Z,21.27
2022-08-18T07:28:36.744Z,21.36
2022-08-18T07:34:05.092Z,21.36
2022-08-18T07:39:48.435Z,21.35
2022-08-18T07:45:30.092Z,21.38
2022-08-18T07:51:05.306Z,21.41
2022-08-18T07:57:01.257Z,21.38
2022-08-18T08:02:26.845Z,21.35
2022-08-18T08:07:57.899Z,21.41
2022-08-18T08:13:54.228Z,21.39
2022-08-18T08:19:59.028Z,21.37
2022-08-18T08:25:45.263Z,21.45
2022-08-18T08:31:38.215Z,21.48
2022-08-18T08:37:12.507Z,21.53
2022-08-18T08:42:41.805Z,21.52
2022-08-18T08:48:20.431Z,21.55
2022-08-18T08:53:58.212Z,21.55
2022-08-18T08:59:22.758Z,21.63
2022-08-18T09:05:09.139Z,21.71
2022-08-18T09:10:48.270Z,21.71
2022-08-18T09:16:27.642Z,21.77
2022-08-18T09:22:45.497Z,21.87
2022-08-18T09:28:15.397Z,21.98
2022-08-18T09:33:46.335Z,22.07
2022-08-18T09:39:54.894Z,22.12
2022-08-18T09:45:33.347Z,22.21
2022-08-18T09:51:32.420Z,22.21
2022-08-18T09:57:09.346Z,22.28
2022-08-18T10:08:28.062Z,22.40
2022-08-18T10:14:13.835Z,22.54
2022-08-18T10:20:26.676Z,22.65
2022-08-18T10:25:48.880Z,22.73
2022-08-18T10:31:10.738Z,22.67
2022-08-18T10:36:47.720Z,22.66
2022-08-18T10:42:11.119Z,22.77
2022-08-18T10:47:37.174Z,22.88
2022-08-18T10:59:47.736Z,22.94
2022-08-18T11:05:18.386Z,23.08
2022-08-18T11:17:07.045Z,23.21
2022-08-18T11:22:34.154Z,23.30
2022-08-18T11:27:57.881Z,23.32
2022-08-18T11:33:24.531Z,23.31
2022-08-18T11:38:56.579Z,23.42
2022-08-18T11:44:26.416Z,23.44
2022-08-18T11:50:10.360Z,23.47
2022-08-18T11:55:34.296Z,23.55
2022-08-18T12:01:01.652Z,23.55
2022-08-18T12:06:29.907Z,23.50
2022-08-18T12:11:56.484Z,23.53
2022-08-18T12:17:19.874Z,23.58
2022-08-18T12:22:44.305Z,23.62
2022-08-18T12:28:11.134Z,23.80
2022-08-18T12:33:34.575Z,23.86
2022-08-18T12:39:09.800Z,23.89
2022-08-18T12:44:31.533Z,23.92
2022-08-18T12:49:53.706Z,24.01
2022-08-18T12:55:21.752Z,24.11
2022-08-18T13:00:44.362Z,24.29
2022-08-18T13:06:06.433Z,24.32
2022-08-18T13:11:29.790Z,24.32
2022-08-18T13:16:53.791Z,24.31
2022-08-18T13:22:16.826Z,24.31
2022-08-18T13:27:39.394Z,24.30
2022-08-18T13:33:34.381Z,24.38
2022-08-18T13:38:54.462Z,24.48
2022-08-18T13:44:18.865Z,24.53
2022-08-18T13:49:41.584Z,24.59
2022-08-18T13:55:21.197Z,24.49
2022-08-18T14:00:42.997Z,24.57
2022-08-18T14:06:07.005Z,24.70
2022-08-18T14:11:33.477Z,24.89
2022-08-18T14:16:55.317Z,25.01
2022-08-18T14:22:36.981Z,25.01
2022-08-18T14:27:59.110Z,25.01
2022-08-18T14:33:34.253Z,25.12
2022-08-18T14:39:10.185Z,25.07
2022-08-18T14:44:32.836Z,24.99
2022-08-18T14:49:57.125Z,24.91
2022-08-18T14:55:19.339Z,24.90
2022-08-18T15:00:53.876Z,24.89
2022-08-18T15:06:17.243Z,24.99
2022-08-18T15:11:44.914Z,25.08
2022-08-18T15:17:11.721Z,25.02
2022-08-18T15:23:18.018Z,25.02
2022-08-18T15:28:45.232Z,24.93
2022-08-18T15:34:07.626Z,24.93
2022-08-18T15:39:34.518Z,24.90
2022-08-18T15:44:56.775Z,24.87
2022-08-18T15:50:21.963Z,24.82
2022-08-18T15:55:50.226Z,24.85
2022-08-18T16:01:30.633Z,24.83
2022-08-18T16:06:56.081Z,24.89
2022-08-18T16:12:17.859Z,24.86
2022-08-18T16:17:39.571Z,24.86
2022-08-18T16:23:01.364Z,24.89
2022-08-18T16:28:35.057Z,24.83
2022-08-18T16:33:57.847Z,24.72
2022-08-18T16:39:19.634Z,24.64
2022-08-18T16:44:42.176Z,24.60
2022-08-18T16:50:05.787Z,24.55
2022-08-18T16:55:27.911Z,24.51
2022-08-18T17:01:09.963Z,24.43
2022-08-18T17:06:35.355Z,24.37
2022-08-18T17:12:09.146Z,24.29
2022-08-18T17:17:31.676Z,24.27
2022-08-18T17:22:53.632Z,24.24
2022-08-18T17:28:18.835Z,24.19
2022-08-18T17:33:45.533Z,24.14
2022-08-18T17:39:11.422Z,24.10
2022-08-18T17:44:52.028Z,24.10
2022-08-18T17:50:45.746Z,24.05
2022-08-18T17:56:21.109Z,24.04
2022-08-18T18:01:43.668Z,23.97
2022-08-18T18:07:05.959Z,23.93
2022-08-18T18:12:30.886Z,23.88
2022-08-18T18:17:52.697Z,23.85
2022-08-18T18:23:19.303Z,23.83
2022-08-18T18:28:41.012Z,23.75
2022-08-18T18:34:06.933Z,23.76
2022-08-18T18:39:55.309Z,23.75
2022-08-18T18:45:27.593Z,23.76
2022-08-18T18:51:06.419Z,23.71
2022-08-18T18:56:45.599Z,23.70
2022-08-18T19:02:36.583Z,23.67
2022-08-18T19:09:03.185Z,23.62
2022-08-18T19:14:31.989Z,23.62
2022-08-18T19:20:00.509Z,23.58
2022-08-18T19:25:41.281Z,23.53
2022-08-18T19:31:28.607Z,23.48
2022-08-18T19:37:14.515Z,23.44
2022-08-18T19:42:54.438Z,23.43
2022-08-18T19:48:29.845Z,23.41
2022-08-18T19:54:18.984Z,23.37
2022-08-18T19:59:43.681Z,23.30
2022-08-18T20:05:22.604Z,23.25
2022-08-18T20:10:50.949Z,23.24
2022-08-18T20:16:28.563Z,23.20
2022-08-18T20:22:15.888Z,23.19
2022-08-18T20:27:44.478Z,23.16
2022-08-18T20:33:11.211Z,23.13
2022-08-18T20:38:45.528Z,23.12
2022-08-18T20:44:29.247Z,23.10
2022-08-18T20:50:33.533Z,23.08
2022-08-18T20:56:31.595Z,23.06
2022-08-18T21:02:08.528Z,23.02
2022-08-18T21:07:36.298Z,23.01
2022-08-18T21:13:02.230Z,22.94
2022-08-18T21:18:25.333Z,22.90
2022-08-18T21:23:53.109Z,22.90
2022-08-18T21:29:16.283Z,22.86
2022-08-18T21:34:45.050Z,22.81
2022-08-18T21:40:07.780Z,22.79
2022-08-18T21:45:29.746Z,22.78
2022-08-18T21:50:58.112Z,22.75
2022-08-18T21:56:31.384Z,22.72
2022-08-18T22:01:56.544Z,22.74
2022-08-18T22:07:34.663Z,22.71
2022-08-18T22:13:16.888Z,22.72
2022-08-18T22:18:39.733Z,22.67
2022-08-18T22:24:19.710Z,22.65
2022-08-18T22:30:04.454Z,22.59
2022-08-18T22:35:27.727Z,22.57
2022-08-18T22:40:49.941Z,22.56
2022-08-18T22:46:11.877Z,22.51
2022-08-18T22:51:42.617Z,22.48
2022-08-18T22:57:04.697Z,22.41
2022-08-18T23:02:28.349Z,22.42
2022-08-18T23:07:50.535Z,22.40
2022-08-18T23:13:12.364Z,22.37
2022-08-18T23:18:34.143Z,22.37
2022-08-18T23:23:56.537Z,22.30
2022-08-18T23:29:20.779Z,22.32
2022-08-18T23:34:42.557Z,22.33
2022-08-18T23:40:05.002Z,22.33
2022-08-18T23:45:27.825Z,22.26
2022-08-18T23:50:49.634Z,22.24
2022-08-18T23:56:11.371Z,22.20
